sensor_id;sensor_type;location;lat;lon;timestamp;P1;durP1;ratioP1;P2;durP2;ratioP2
76021;SDS011;64718;52.124;6.226;2022-12-10T00:00:43;29.35;;;11.73;;
76021;SDS011;64718;52.124;6.226;2022-12-10T00:03:09;27.75;;;11.23;;
76021;SDS011;64718;52.124;6.226;2022-12-10T00:05:36;32.60;;;12.85;;
76021;SDS011;64718;52.124;6.226;2022-12-10T00:08:02;26.73;;;11.40;;
76021;SDS011;64718;52.124;6.226;2022-12-10T00:10:29;38.35;;;13.43;;
76021;SDS011;64718;52.124;6.226;2022-12-10T00:12:56;29.67;;;13.52;;
76021;SDS011;64718;52.124;6.226;2022-12-10T00:15:23;36.03;;;13.13;;
76021;SDS011;64718;52.124;6.226;2022-12-10T00:17:51;31.50;;;12.77;;
76021;SDS011;64718;52.124;6.226;2022-12-10T00:20:17;35.95;;;13.63;;
76021;SDS011;64718;52.124;6.226;2022-12-10T00:22:44;29.50;;;12.30;;
76021;SDS011;64718;52.124;6.226;2022-12-10T00:25:10;29.98;;;11.90;;
76021;SDS011;64718;52.124;6.226;2022-12-10T00:27:37;32.38;;;14.10;;
76021;SDS011;64718;52.124;6.226;2022-12-10T00:30:04;31.90;;;12.13;;
76021;SDS011;64718;52.124;6.226;2022-12-10T00:32:31;34.78;;;13.32;;
76021;SDS011;64718;52.124;6.226;2022-12-10T00:34:59;29.77;;;12.90;;
76021;SDS011;64718;52.124;6.226;2022-12-10T00:37:25;43.17;;;12.65;;
76021;SDS011;64718;52.124;6.226;2022-12-10T00:39:52;33.40;;;12.20;;
76021;SDS011;64718;52.124;6.226;2022-12-10T00:42:19;34.85;;;13.13;;
76021;SDS011;64718;52.124;6.226;2022-12-10T00:44:45;32.47;;;12.50;;
76021;SDS011;64718;52.124;6.226;2022-12-10T00:47:12;29.80;;;12.50;;
76021;SDS011;64718;52.124;6.226;2022-12-10T00:49:38;25.70;;;10.98;;
76021;SDS011;64718;52.124;6.226;2022-12-10T00:52:06;34.85;;;12.73;;
76021;SDS011;64718;52.124;6.226;2022-12-10T00:54:33;33.05;;;13.52;;
76021;SDS011;64718;52.124;6.226;2022-12-10T00:56:59;30.92;;;12.32;;
76021;SDS011;64718;52.124;6.226;2022-12-10T00:59:26;35.75;;;13.50;;
76021;SDS011;64718;52.124;6.226;2022-12-10T01:01:52;31.35;;;14.00;;
76021;SDS011;64718;52.124;6.226;2022-12-10T01:04:19;37.75;;;15.23;;
76021;SDS011;64718;52.124;6.226;2022-12-10T01:06:46;37.85;;;13.40;;
76021;SDS011;64718;52.124;6.226;2022-12-10T01:09:17;41.47;;;13.77;;
76021;SDS011;64718;52.124;6.226;2022-12-10T01:11:45;33.17;;;13.32;;
76021;SDS011;64718;52.124;6.226;2022-12-10T01:14:14;46.92;;;15.35;;
76021;SDS011;64718;52.124;6.226;2022-12-10T01:16:43;35.70;;;13.77;;
76021;SDS011;64718;52.124;6.226;2022-12-10T01:19:10;30.15;;;13.10;;
76021;SDS011;64718;52.124;6.226;2022-12-10T01:21:36;40.13;;;13.65;;
76021;SDS011;64718;52.124;6.226;2022-12-10T01:24:03;31.98;;;13.82;;
76021;SDS011;64718;52.124;6.226;2022-12-10T01:26:32;36.17;;;13.82;;
76021;SDS011;64718;52.124;6.226;2022-12-10T01:29:00;40.67;;;13.35;;
76021;SDS011;64718;52.124;6.226;2022-12-10T01:31:28;34.88;;;12.90;;
76021;SDS011;64718;52.124;6.226;2022-12-10T01:33:57;38.35;;;13.75;;
76021;SDS011;64718;52.124;6.226;2022-12-10T01:36:26;40.22;;;14.82;;
76021;SDS011;64718;52.124;6.226;2022-12-10T01:38:54;40.28;;;14.75;;
76021;SDS011;64718;52.124;6.226;2022-12-10T01:41:21;54.17;;;17.50;;
76021;SDS011;64718;52.124;6.226;2022-12-10T01:43:53;45.33;;;16.33;;
76021;SDS011;64718;52.124;6.226;2022-12-10T01:46:22;38.25;;;14.95;;
76021;SDS011;64718;52.124;6.226;2022-12-10T01:48:50;41.33;;;15.27;;
76021;SDS011;64718;52.124;6.226;2022-12-10T01:51:17;46.00;;;16.98;;
76021;SDS011;64718;52.124;6.226;2022-12-10T01:53:43;39.88;;;14.95;;
76021;SDS011;64718;52.124;6.226;2022-12-10T01:56:12;42.03;;;15.93;;
76021;SDS011;64718;52.124;6.226;2022-12-10T01:58:41;46.17;;;16.55;;
76021;SDS011;64718;52.124;6.226;2022-12-10T02:01:10;45.88;;;16.55;;
76021;SDS011;64718;52.124;6.226;2022-12-10T02:03:43;47.25;;;14.88;;
76021;SDS011;64718;52.124;6.226;2022-12-10T02:06:25;46.83;;;16.15;;
76021;SDS011;64718;52.124;6.226;2022-12-10T02:09:02;52.40;;;20.00;;
76021;SDS011;64718;52.124;6.226;2022-12-10T02:11:37;48.40;;;16.00;;
76021;SDS011;64718;52.124;6.226;2022-12-10T02:14:09;44.25;;;16.33;;
76021;SDS011;64718;52.124;6.226;2022-12-10T02:16:46;48.60;;;15.57;;
76021;SDS011;64718;52.124;6.226;2022-12-10T02:19:19;45.08;;;16.30;;
76021;SDS011;64718;52.124;6.226;2022-12-10T02:21:51;36.78;;;14.15;;
76021;SDS011;64718;52.124;6.226;2022-12-10T02:24:20;37.45;;;14.13;;
76021;SDS011;64718;52.124;6.226;2022-12-10T02:26:52;39.10;;;13.63;;
76021;SDS011;64718;52.124;6.226;2022-12-10T02:29:26;39.70;;;14.80;;
76021;SDS011;64718;52.124;6.226;2022-12-10T02:31:55;35.40;;;13.02;;
76021;SDS011;64718;52.124;6.226;2022-12-10T02:34:27;40.97;;;14.93;;
76021;SDS011;64718;52.124;6.226;2022-12-10T02:36:58;38.20;;;14.77;;
76021;SDS011;64718;52.124;6.226;2022-12-10T02:39:31;38.40;;;13.15;;
76021;SDS011;64718;52.124;6.226;2022-12-10T02:42:03;41.05;;;13.88;;
76021;SDS011;64718;52.124;6.226;2022-12-10T02:44:33;35.60;;;13.45;;
76021;SDS011;64718;52.124;6.226;2022-12-10T02:47:03;40.22;;;13.27;;
76021;SDS011;64718;52.124;6.226;2022-12-10T02:49:31;38.70;;;14.23;;
76021;SDS011;64718;52.124;6.226;2022-12-10T02:51:59;39.13;;;14.43;;
76021;SDS011;64718;52.124;6.226;2022-12-10T02:54:33;32.10;;;13.43;;
76021;SDS011;64718;52.124;6.226;2022-12-10T02:57:04;33.47;;;13.88;;
76021;SDS011;64718;52.124;6.226;2022-12-10T02:59:42;40.03;;;13.20;;
76021;SDS011;64718;52.124;6.226;2022-12-10T03:02:20;34.63;;;12.82;;
76021;SDS011;64718;52.124;6.226;2022-12-10T03:04:56;34.55;;;13.43;;
76021;SDS011;64718;52.124;6.226;2022-12-10T03:07:27;38.08;;;14.38;;
76021;SDS011;64718;52.124;6.226;2022-12-10T03:10:00;42.20;;;14.50;;
76021;SDS011;64718;52.124;6.226;2022-12-10T03:12:33;38.67;;;13.30;;
76021;SDS011;64718;52.124;6.226;2022-12-10T03:15:07;32.67;;;13.23;;
76021;SDS011;64718;52.124;6.226;2022-12-10T03:17:37;39.25;;;13.27;;
76021;SDS011;64718;52.124;6.226;2022-12-10T03:20:06;39.13;;;14.27;;
76021;SDS011;64718;52.124;6.226;2022-12-10T03:22:36;32.70;;;11.68;;
76021;SDS011;64718;52.124;6.226;2022-12-10T03:25:06;40.45;;;13.73;;
76021;SDS011;64718;52.124;6.226;2022-12-10T03:27:36;41.00;;;13.38;;
76021;SDS011;64718;52.124;6.226;2022-12-10T03:30:07;35.28;;;12.65;;
76021;SDS011;64718;52.124;6.226;2022-12-10T03:32:35;43.65;;;14.35;;
76021;SDS011;64718;52.124;6.226;2022-12-10T03:35:03;35.78;;;12.80;;
76021;SDS011;64718;52.124;6.226;2022-12-10T03:37:32;34.78;;;11.98;;
76021;SDS011;64718;52.124;6.226;2022-12-10T03:40:00;37.92;;;13.27;;
76021;SDS011;64718;52.124;6.226;2022-12-10T03:42:29;39.05;;;14.07;;
76021;SDS011;64718;52.124;6.226;2022-12-10T03:44:56;42.58;;;14.43;;
76021;SDS011;64718;52.124;6.226;2022-12-10T03:47:24;41.28;;;13.93;;
76021;SDS011;64718;52.124;6.226;2022-12-10T03:49:50;38.72;;;13.60;;
76021;SDS011;64718;52.124;6.226;2022-12-10T03:52:17;38.72;;;12.95;;
76021;SDS011;64718;52.124;6.226;2022-12-10T03:54:44;43.47;;;14.18;;
76021;SDS011;64718;52.124;6.226;2022-12-10T03:57:10;34.15;;;13.32;;
76021;SDS011;64718;52.124;6.226;2022-12-10T03:59:37;34.58;;;11.48;;
76021;SDS011;64718;52.124;6.226;2022-12-10T04:02:03;44.63;;;14.45;;
76021;SDS011;64718;52.124;6.226;2022-12-10T04:04:31;42.35;;;13.63;;
76021;SDS011;64718;52.124;6.226;2022-12-10T04:06:58;38.63;;;13.65;;
76021;SDS011;64718;52.124;6.226;2022-12-10T04:09:25;34.70;;;13.50;;
76021;SDS011;64718;52.124;6.226;2022-12-10T04:11:54;42.53;;;13.23;;
76021;SDS011;64718;52.124;6.226;2022-12-10T04:14:21;49.03;;;14.85;;
76021;SDS011;64718;52.124;6.226;2022-12-10T04:17:05;39.88;;;13.93;;
76021;SDS011;64718;52.124;6.226;2022-12-10T04:19:33;48.35;;;16.08;;
76021;SDS011;64718;52.124;6.226;2022-12-10T04:22:00;57.22;;;17.92;;
76021;SDS011;64718;52.124;6.226;2022-12-10T04:24:44;45.22;;;14.27;;
76021;SDS011;64718;52.124;6.226;2022-12-10T04:27:29;47.17;;;15.30;;
76021;SDS011;64718;52.124;6.226;2022-12-10T04:29:57;44.97;;;14.45;;
76021;SDS011;64718;52.124;6.226;2022-12-10T04:32:25;47.58;;;15.32;;
76021;SDS011;64718;52.124;6.226;2022-12-10T04:34:54;43.22;;;15.50;;
76021;SDS011;64718;52.124;6.226;2022-12-10T04:37:22;52.05;;;17.38;;
76021;SDS011;64718;52.124;6.226;2022-12-10T04:39:49;42.50;;;14.30;;
76021;SDS011;64718;52.124;6.226;2022-12-10T04:42:16;51.40;;;16.60;;
76021;SDS011;64718;52.124;6.226;2022-12-10T04:44:43;43.97;;;15.30;;
76021;SDS011;64718;52.124;6.226;2022-12-10T04:47:10;52.83;;;16.80;;
76021;SDS011;64718;52.124;6.226;2022-12-10T04:49:38;43.85;;;16.27;;
76021;SDS011;64718;52.124;6.226;2022-12-10T04:52:06;51.20;;;15.98;;
76021;SDS011;64718;52.124;6.226;2022-12-10T04:54:34;60.78;;;18.83;;
76021;SDS011;64718;52.124;6.226;2022-12-10T04:57:00;50.38;;;15.98;;
76021;SDS011;64718;52.124;6.226;2022-12-10T04:59:27;54.70;;;18.02;;
76021;SDS011;64718;52.124;6.226;2022-12-10T05:01:54;44.25;;;15.88;;
76021;SDS011;64718;52.124;6.226;2022-12-10T05:04:20;51.83;;;17.98;;
76021;SDS011;64718;52.124;6.226;2022-12-10T05:06:47;51.95;;;15.75;;
76021;SDS011;64718;52.124;6.226;2022-12-10T05:09:16;49.25;;;17.27;;
76021;SDS011;64718;52.124;6.226;2022-12-10T05:11:43;41.95;;;14.50;;
76021;SDS011;64718;52.124;6.226;2022-12-10T05:14:10;46.67;;;15.52;;
76021;SDS011;64718;52.124;6.226;2022-12-10T05:16:36;53.08;;;16.30;;
76021;SDS011;64718;52.124;6.226;2022-12-10T05:19:03;47.35;;;15.85;;
76021;SDS011;64718;52.124;6.226;2022-12-10T05:21:30;46.15;;;16.83;;
76021;SDS011;64718;52.124;6.226;2022-12-10T05:24:10;53.30;;;17.70;;
76021;SDS011;64718;52.124;6.226;2022-12-10T05:26:39;55.63;;;15.88;;
76021;SDS011;64718;52.124;6.226;2022-12-10T05:29:05;63.97;;;19.80;;
76021;SDS011;64718;52.124;6.226;2022-12-10T05:31:32;65.10;;;19.40;;
76021;SDS011;64718;52.124;6.226;2022-12-10T05:33:59;47.15;;;15.68;;
76021;SDS011;64718;52.124;6.226;2022-12-10T05:36:27;58.80;;;18.08;;
76021;SDS011;64718;52.124;6.226;2022-12-10T05:38:56;51.67;;;18.02;;
76021;SDS011;64718;52.124;6.226;2022-12-10T05:41:24;66.35;;;19.58;;
76021;SDS011;64718;52.124;6.226;2022-12-10T05:43:54;66.68;;;19.35;;
76021;SDS011;64718;52.124;6.226;2022-12-10T05:46:22;78.63;;;22.35;;
76021;SDS011;64718;52.124;6.226;2022-12-10T05:48:49;73.05;;;21.85;;
76021;SDS011;64718;52.124;6.226;2022-12-10T05:51:17;72.82;;;20.70;;
76021;SDS011;64718;52.124;6.226;2022-12-10T05:53:45;86.80;;;24.52;;
76021;SDS011;64718;52.124;6.226;2022-12-10T05:56:13;85.82;;;23.50;;
76021;SDS011;64718;52.124;6.226;2022-12-10T05:58:42;99.80;;;28.02;;
76021;SDS011;64718;52.124;6.226;2022-12-10T06:01:12;104.50;;;26.33;;
76021;SDS011;64718;52.124;6.226;2022-12-10T06:03:40;80.63;;;21.85;;
76021;SDS011;64718;52.124;6.226;2022-12-10T06:06:07;86.93;;;24.27;;
76021;SDS011;64718;52.124;6.226;2022-12-10T06:08:35;88.20;;;25.30;;
76021;SDS011;64718;52.124;6.226;2022-12-10T06:11:03;86.90;;;24.13;;
76021;SDS011;64718;52.124;6.226;2022-12-10T06:13:30;75.53;;;22.98;;
76021;SDS011;64718;52.124;6.226;2022-12-10T06:15:57;72.82;;;20.60;;
76021;SDS011;64718;52.124;6.226;2022-12-10T06:18:25;83.00;;;24.40;;
76021;SDS011;64718;52.124;6.226;2022-12-10T06:20:52;82.22;;;25.42;;
76021;SDS011;64718;52.124;6.226;2022-12-10T06:23:18;96.50;;;25.10;;
76021;SDS011;64718;52.124;6.226;2022-12-10T06:25:45;78.72;;;25.83;;
76021;SDS011;64718;52.124;6.226;2022-12-10T06:28:11;82.05;;;25.30;;
76021;SDS011;64718;52.124;6.226;2022-12-10T06:30:38;88.13;;;25.52;;
76021;SDS011;64718;52.124;6.226;2022-12-10T06:33:05;90.00;;;25.98;;
76021;SDS011;64718;52.124;6.226;2022-12-10T06:35:32;98.55;;;26.65;;
76021;SDS011;64718;52.124;6.226;2022-12-10T06:37:59;103.93;;;28.08;;
76021;SDS011;64718;52.124;6.226;2022-12-10T06:40:26;102.63;;;25.95;;
76021;SDS011;64718;52.124;6.226;2022-12-10T06:42:52;89.18;;;25.95;;
76021;SDS011;64718;52.124;6.226;2022-12-10T06:45:19;101.85;;;26.27;;
76021;SDS011;64718;52.124;6.226;2022-12-10T06:47:45;105.53;;;28.13;;
76021;SDS011;64718;52.124;6.226;2022-12-10T06:50:12;95.25;;;25.70;;
76021;SDS011;64718;52.124;6.226;2022-12-10T06:52:40;100.85;;;24.88;;
76021;SDS011;64718;52.124;6.226;2022-12-10T06:55:07;101.85;;;27.42;;
76021;SDS011;64718;52.124;6.226;2022-12-10T06:57:34;96.03;;;24.60;;
76021;SDS011;64718;52.124;6.226;2022-12-10T07:00:00;92.10;;;26.40;;
76021;SDS011;64718;52.124;6.226;2022-12-10T07:02:27;91.82;;;27.58;;
76021;SDS011;64718;52.124;6.226;2022-12-10T07:04:53;85.95;;;24.80;;
76021;SDS011;64718;52.124;6.226;2022-12-10T07:07:21;103.10;;;27.13;;
76021;SDS011;64718;52.124;6.226;2022-12-10T07:09:49;94.63;;;27.90;;
76021;SDS011;64718;52.124;6.226;2022-12-10T07:12:16;111.95;;;30.73;;
76021;SDS011;64718;52.124;6.226;2022-12-10T07:14:42;96.63;;;27.58;;
76021;SDS011;64718;52.124;6.226;2022-12-10T07:17:09;96.18;;;26.77;;
76021;SDS011;64718;52.124;6.226;2022-12-10T07:19:36;104.68;;;29.23;;
76021;SDS011;64718;52.124;6.226;2022-12-10T07:22:02;95.50;;;25.85;;
76021;SDS011;64718;52.124;6.226;2022-12-10T07:24:29;90.00;;;25.77;;
76021;SDS011;64718;52.124;6.226;2022-12-10T07:26:57;111.78;;;28.08;;
76021;SDS011;64718;52.124;6.226;2022-12-10T07:29:24;115.25;;;29.02;;
76021;SDS011;64718;52.124;6.226;2022-12-10T07:31:51;108.00;;;26.55;;
76021;SDS011;64718;52.124;6.226;2022-12-10T07:34:19;96.88;;;26.90;;
76021;SDS011;64718;52.124;6.226;2022-12-10T07:36:46;115.45;;;26.90;;
76021;SDS011;64718;52.124;6.226;2022-12-10T07:39:12;111.18;;;25.10;;
76021;SDS011;64718;52.124;6.226;2022-12-10T07:41:42;106.72;;;24.52;;
76021;SDS011;64718;52.124;6.226;2022-12-10T07:44:12;94.50;;;23.20;;
76021;SDS011;64718;52.124;6.226;2022-12-10T07:46:39;82.55;;;23.70;;
76021;SDS011;64718;52.124;6.226;2022-12-10T07:49:06;127.82;;;25.45;;
76021;SDS011;64718;52.124;6.226;2022-12-10T07:51:33;127.25;;;27.13;;
76021;SDS011;64718;52.124;6.226;2022-12-10T07:53:59;93.40;;;22.55;;
76021;SDS011;64718;52.124;6.226;2022-12-10T07:56:26;85.50;;;24.25;;
76021;SDS011;64718;52.124;6.226;2022-12-10T07:58:53;93.40;;;23.83;;
76021;SDS011;64718;52.124;6.226;2022-12-10T08:01:21;74.60;;;21.65;;
76021;SDS011;64718;52.124;6.226;2022-12-10T08:06:17;89.32;;;20.48;;
76021;SDS011;64718;52.124;6.226;2022-12-10T08:08:46;100.35;;;22.98;;
76021;SDS011;64718;52.124;6.226;2022-12-10T08:11:14;96.32;;;24.35;;
76021;SDS011;64718;52.124;6.226;2022-12-10T08:13:42;152.70;;;29.02;;
76021;SDS011;64718;52.124;6.226;2022-12-10T08:16:10;119.68;;;26.27;;
76021;SDS011;64718;52.124;6.226;2022-12-10T08:18:39;82.35;;;19.83;;
76021;SDS011;64718;52.124;6.226;2022-12-10T08:21:07;104.88;;;26.23;;
76021;SDS011;64718;52.124;6.226;2022-12-10T08:23:35;87.75;;;22.05;;
76021;SDS011;64718;52.124;6.226;2022-12-10T08:26:02;78.13;;;25.17;;
76021;SDS011;64718;52.124;6.226;2022-12-10T08:28:30;130.90;;;26.90;;
76021;SDS011;64718;52.124;6.226;2022-12-10T08:30:57;94.78;;;20.98;;
76021;SDS011;64718;52.124;6.226;2022-12-10T08:33:23;85.75;;;23.55;;
76021;SDS011;64718;52.124;6.226;2022-12-10T08:35:51;110.03;;;27.48;;
76021;SDS011;64718;52.124;6.226;2022-12-10T08:38:18;94.97;;;26.40;;
76021;SDS011;64718;52.124;6.226;2022-12-10T08:40:44;113.43;;;25.80;;
76021;SDS011;64718;52.124;6.226;2022-12-10T08:43:11;94.65;;;25.50;;
76021;SDS011;64718;52.124;6.226;2022-12-10T08:45:37;94.40;;;25.05;;
76021;SDS011;64718;52.124;6.226;2022-12-10T08:48:04;124.28;;;28.27;;
76021;SDS011;64718;52.124;6.226;2022-12-10T08:50:31;85.65;;;19.98;;
76021;SDS011;64718;52.124;6.226;2022-12-10T08:52:59;99.50;;;24.45;;
76021;SDS011;64718;52.124;6.226;2022-12-10T08:55:25;103.47;;;25.35;;
76021;SDS011;64718;52.124;6.226;2022-12-10T08:57:52;106.75;;;25.98;;
76021;SDS011;64718;52.124;6.226;2022-12-10T09:00:19;103.07;;;24.92;;
76021;SDS011;64718;52.124;6.226;2022-12-10T09:02:45;103.90;;;24.60;;
76021;SDS011;64718;52.124;6.226;2022-12-10T09:05:12;112.20;;;28.70;;
76021;SDS011;64718;52.124;6.226;2022-12-10T09:07:39;92.80;;;25.58;;
76021;SDS011;64718;52.124;6.226;2022-12-10T09:10:08;98.53;;;26.65;;
76021;SDS011;64718;52.124;6.226;2022-12-10T09:12:36;83.35;;;23.85;;
76021;SDS011;64718;52.124;6.226;2022-12-10T09:15:03;95.93;;;22.65;;
76021;SDS011;64718;52.124;6.226;2022-12-10T09:17:30;60.30;;;19.30;;
76021;SDS011;64718;52.124;6.226;2022-12-10T09:19:56;95.72;;;24.02;;
76021;SDS011;64718;52.124;6.226;2022-12-10T09:22:23;79.97;;;21.75;;
76021;SDS011;64718;52.124;6.226;2022-12-10T09:24:49;64.75;;;18.10;;
76021;SDS011;64718;52.124;6.226;2022-12-10T09:27:17;68.55;;;20.60;;
76021;SDS011;64718;52.124;6.226;2022-12-10T09:29:45;75.35;;;20.85;;
76021;SDS011;64718;52.124;6.226;2022-12-10T09:32:12;102.05;;;23.40;;
76021;SDS011;64718;52.124;6.226;2022-12-10T09:34:38;64.75;;;19.50;;
76021;SDS011;64718;52.124;6.226;2022-12-10T09:37:05;64.88;;;20.70;;
76021;SDS011;64718;52.124;6.226;2022-12-10T09:39:31;63.50;;;19.40;;
76021;SDS011;64718;52.124;6.226;2022-12-10T09:42:02;71.32;;;21.73;;
76021;SDS011;64718;52.124;6.226;2022-12-10T09:44:46;67.90;;;21.40;;
76021;SDS011;64718;52.124;6.226;2022-12-10T09:47:26;63.05;;;21.10;;
76021;SDS011;64718;52.124;6.226;2022-12-10T09:50:02;66.40;;;19.73;;
76021;SDS011;64718;52.124;6.226;2022-12-10T09:52:39;72.40;;;19.90;;
76021;SDS011;64718;52.124;6.226;2022-12-10T09:55:10;65.57;;;20.83;;
76021;SDS011;64718;52.124;6.226;2022-12-10T09:57:40;54.22;;;18.58;;
76021;SDS011;64718;52.124;6.226;2022-12-10T10:00:17;78.90;;;20.75;;
76021;SDS011;64718;52.124;6.226;2022-12-10T10:02:46;60.75;;;19.05;;
76021;SDS011;64718;52.124;6.226;2022-12-10T10:05:19;67.55;;;20.42;;
76021;SDS011;64718;52.124;6.226;2022-12-10T10:07:49;62.47;;;22.85;;
76021;SDS011;64718;52.124;6.226;2022-12-10T10:10:24;67.28;;;20.27;;
76021;SDS011;64718;52.124;6.226;2022-12-10T10:12:54;66.25;;;19.35;;
76021;SDS011;64718;52.124;6.226;2022-12-10T10:15:26;64.45;;;18.55;;
76021;SDS011;64718;52.124;6.226;2022-12-10T10:17:56;79.07;;;21.17;;
76021;SDS011;64718;52.124;6.226;2022-12-10T10:20:27;80.05;;;21.92;;
76021;SDS011;64718;52.124;6.226;2022-12-10T10:22:55;69.10;;;19.33;;
76021;SDS011;64718;52.124;6.226;2022-12-10T10:25:24;67.15;;;19.48;;
76021;SDS011;64718;52.124;6.226;2022-12-10T10:27:52;63.45;;;19.42;;
76021;SDS011;64718;52.124;6.226;2022-12-10T10:30:21;74.20;;;19.25;;
76021;SDS011;64718;52.124;6.226;2022-12-10T10:32:51;66.50;;;20.35;;
76021;SDS011;64718;52.124;6.226;2022-12-10T10:35:21;58.05;;;17.58;;
76021;SDS011;64718;52.124;6.226;2022-12-10T10:37:55;66.88;;;21.33;;
76021;SDS011;64718;52.124;6.226;2022-12-10T10:40:25;78.22;;;21.30;;
76021;SDS011;64718;52.124;6.226;2022-12-10T10:42:54;76.63;;;18.35;;
76021;SDS011;64718;52.124;6.226;2022-12-10T10:45:36;79.15;;;19.70;;
76021;SDS011;64718;52.124;6.226;2022-12-10T10:48:08;71.80;;;19.40;;
76021;SDS011;64718;52.124;6.226;2022-12-10T10:50:39;76.35;;;21.23;;
76021;SDS011;64718;52.124;6.226;2022-12-10T10:53:24;85.97;;;24.17;;
76021;SDS011;64718;52.124;6.226;2022-12-10T10:55:55;82.78;;;23.48;;
76021;SDS011;64718;52.124;6.226;2022-12-10T10:58:25;69.18;;;19.33;;
76021;SDS011;64718;52.124;6.226;2022-12-10T11:00:53;67.45;;;20.10;;
76021;SDS011;64718;52.124;6.226;2022-12-10T11:03:22;77.75;;;19.58;;
76021;SDS011;64718;52.124;6.226;2022-12-10T11:05:49;80.95;;;19.15;;
76021;SDS011;64718;52.124;6.226;2022-12-10T11:08:17;71.82;;;17.65;;
76021;SDS011;64718;52.124;6.226;2022-12-10T11:10:49;69.55;;;19.65;;
76021;SDS011;64718;52.124;6.226;2022-12-10T11:13:22;84.50;;;21.00;;
76021;SDS011;64718;52.124;6.226;2022-12-10T11:15:54;77.22;;;21.08;;
76021;SDS011;64718;52.124;6.226;2022-12-10T11:18:25;77.28;;;22.50;;
76021;SDS011;64718;52.124;6.226;2022-12-10T11:20:56;79.47;;;23.10;;
76021;SDS011;64718;52.124;6.226;2022-12-10T11:23:26;78.50;;;20.75;;
76021;SDS011;64718;52.124;6.226;2022-12-10T11:25:55;70.03;;;19.92;;
76021;SDS011;64718;52.124;6.226;2022-12-10T11:28:37;75.03;;;20.13;;
76021;SDS011;64718;52.124;6.226;2022-12-10T11:31:16;84.15;;;24.98;;
76021;SDS011;64718;52.124;6.226;2022-12-10T11:33:58;70.30;;;19.45;;
76021;SDS011;64718;52.124;6.226;2022-12-10T11:36:34;80.18;;;20.02;;
76021;SDS011;64718;52.124;6.226;2022-12-10T11:39:07;69.72;;;18.63;;
76021;SDS011;64718;52.124;6.226;2022-12-10T11:41:45;68.95;;;18.85;;
76021;SDS011;64718;52.124;6.226;2022-12-10T11:44:22;87.22;;;20.95;;
76021;SDS011;64718;52.124;6.226;2022-12-10T11:49:31;73.22;;;20.23;;
76021;SDS011;64718;52.124;6.226;2022-12-10T11:52:04;83.65;;;19.88;;
76021;SDS011;64718;52.124;6.226;2022-12-10T11:54:41;72.90;;;19.35;;
76021;SDS011;64718;52.124;6.226;2022-12-10T11:57:21;83.78;;;22.33;;
76021;SDS011;64718;52.124;6.226;2022-12-10T11:59:57;76.75;;;19.05;;
76021;SDS011;64718;52.124;6.226;2022-12-10T12:05:33;77.90;;;21.00;;
76021;SDS011;64718;52.124;6.226;2022-12-10T12:08:12;62.08;;;19.40;;
76021;SDS011;64718;52.124;6.226;2022-12-10T12:10:49;74.05;;;21.33;;
76021;SDS011;64718;52.124;6.226;2022-12-10T12:13:33;66.28;;;18.40;;
76021;SDS011;64718;52.124;6.226;2022-12-10T12:16:03;67.78;;;17.70;;
76021;SDS011;64718;52.124;6.226;2022-12-10T12:18:36;66.05;;;19.08;;
76021;SDS011;64718;52.124;6.226;2022-12-10T12:21:10;74.57;;;22.27;;
76021;SDS011;64718;52.124;6.226;2022-12-10T12:23:43;66.88;;;18.10;;
76021;SDS011;64718;52.124;6.226;2022-12-10T12:26:15;67.78;;;18.40;;
76021;SDS011;64718;52.124;6.226;2022-12-10T12:28:47;66.68;;;20.58;;
76021;SDS011;64718;52.124;6.226;2022-12-10T12:31:18;74.55;;;18.50;;
76021;SDS011;64718;52.124;6.226;2022-12-10T12:33:49;82.90;;;20.33;;
76021;SDS011;64718;52.124;6.226;2022-12-10T12:36:23;83.00;;;21.98;;
76021;SDS011;64718;52.124;6.226;2022-12-10T12:38:54;71.60;;;19.88;;
76021;SDS011;64718;52.124;6.226;2022-12-10T12:41:27;56.15;;;17.05;;
76021;SDS011;64718;52.124;6.226;2022-12-10T12:44:01;62.38;;;18.63;;
76021;SDS011;64718;52.124;6.226;2022-12-10T12:46:35;65.25;;;18.90;;
76021;SDS011;64718;52.124;6.226;2022-12-10T12:49:08;65.32;;;16.60;;
76021;SDS011;64718;52.124;6.226;2022-12-10T12:51:41;74.88;;;18.25;;
76021;SDS011;64718;52.124;6.226;2022-12-10T12:54:12;71.53;;;19.90;;
76021;SDS011;64718;52.124;6.226;2022-12-10T12:56:48;76.28;;;16.00;;
76021;SDS011;64718;52.124;6.226;2022-12-10T12:59:26;62.55;;;15.75;;
76021;SDS011;64718;52.124;6.226;2022-12-10T13:02:08;85.10;;;20.08;;
76021;SDS011;64718;52.124;6.226;2022-12-10T13:04:47;65.40;;;17.58;;
76021;SDS011;64718;52.124;6.226;2022-12-10T13:07:28;88.65;;;21.13;;
76021;SDS011;64718;52.124;6.226;2022-12-10T13:13:05;71.85;;;17.95;;
76021;SDS011;64718;52.124;6.226;2022-12-10T13:15:42;71.30;;;19.17;;
76021;SDS011;64718;52.124;6.226;2022-12-10T13:18:20;71.32;;;17.23;;
76021;SDS011;64718;52.124;6.226;2022-12-10T13:24:04;73.03;;;18.02;;
76021;SDS011;64718;52.124;6.226;2022-12-10T13:26:33;75.88;;;18.45;;
76021;SDS011;64718;52.124;6.226;2022-12-10T13:29:10;88.68;;;21.50;;
76021;SDS011;64718;52.124;6.226;2022-12-10T13:31:39;67.38;;;19.85;;
76021;SDS011;64718;52.124;6.226;2022-12-10T13:37:06;75.13;;;17.45;;
76021;SDS011;64718;52.124;6.226;2022-12-10T13:39:46;72.80;;;18.60;;
76021;SDS011;64718;52.124;6.226;2022-12-10T13:42:26;75.15;;;16.92;;
76021;SDS011;64718;52.124;6.226;2022-12-10T13:45:30;73.30;;;21.23;;
76021;SDS011;64718;52.124;6.226;2022-12-10T13:48:15;82.65;;;17.05;;
76021;SDS011;64718;52.124;6.226;2022-12-10T13:50:50;80.18;;;20.10;;
76021;SDS011;64718;52.124;6.226;2022-12-10T13:53:29;99.70;;;22.70;;
76021;SDS011;64718;52.124;6.226;2022-12-10T13:56:10;83.30;;;19.55;;
76021;SDS011;64718;52.124;6.226;2022-12-10T13:58:46;100.10;;;20.00;;
76021;SDS011;64718;52.124;6.226;2022-12-10T14:01:23;69.57;;;15.85;;
76021;SDS011;64718;52.124;6.226;2022-12-10T14:04:21;82.70;;;18.40;;
76021;SDS011;64718;52.124;6.226;2022-12-10T14:06:58;71.43;;;15.82;;
76021;SDS011;64718;52.124;6.226;2022-12-10T14:09:25;81.15;;;18.00;;
76021;SDS011;64718;52.124;6.226;2022-12-10T14:11:59;82.82;;;16.33;;
76021;SDS011;64718;52.124;6.226;2022-12-10T14:14:30;68.55;;;17.73;;
76021;SDS011;64718;52.124;6.226;2022-12-10T14:16:59;81.10;;;19.08;;
76021;SDS011;64718;52.124;6.226;2022-12-10T14:19:27;86.40;;;18.38;;
76021;SDS011;64718;52.124;6.226;2022-12-10T14:21:54;78.95;;;18.85;;
76021;SDS011;64718;52.124;6.226;2022-12-10T14:24:29;78.95;;;18.67;;
76021;SDS011;64718;52.124;6.226;2022-12-10T14:27:01;82.88;;;18.92;;
76021;SDS011;64718;52.124;6.226;2022-12-10T14:29:35;64.45;;;16.63;;
76021;SDS011;64718;52.124;6.226;2022-12-10T14:32:02;73.38;;;16.15;;
76021;SDS011;64718;52.124;6.226;2022-12-10T14:34:29;96.57;;;19.52;;
76021;SDS011;64718;52.124;6.226;2022-12-10T14:36:56;63.47;;;17.27;;
76021;SDS011;64718;52.124;6.226;2022-12-10T14:39:28;80.32;;;17.77;;
76021;SDS011;64718;52.124;6.226;2022-12-10T14:41:57;82.32;;;15.77;;
76021;SDS011;64718;52.124;6.226;2022-12-10T14:44:26;93.90;;;17.58;;
76021;SDS011;64718;52.124;6.226;2022-12-10T14:47:02;74.65;;;16.25;;
76021;SDS011;64718;52.124;6.226;2022-12-10T14:49:30;92.28;;;17.50;;
76021;SDS011;64718;52.124;6.226;2022-12-10T14:51:57;100.93;;;17.35;;
76021;SDS011;64718;52.124;6.226;2022-12-10T14:54:27;88.75;;;17.35;;